createdAt,value
2019-01-11T00:04:56.410Z,26.03
2019-01-11T00:11:00.655Z,27.53
2019-01-11T00:17:05.068Z,26.83
2019-01-11T00:23:10.903Z,27.13
2019-01-11T00:29:15.369Z,26.53
2019-01-11T00:35:19.604Z,25.20
2019-01-11T00:41:24.080Z,25.23
2019-01-11T00:47:28.293Z,25.70
2019-01-11T00:53:33.696Z,23.97
2019-01-11T00:59:38.322Z,23.63
2019-01-11T01:05:42.644Z,21.30
2019-01-11T01:11:46.930Z,19.90
2019-01-11T01:17:51.414Z,19.53
2019-01-11T01:23:55.658Z,18.97
2019-01-11T01:29:59.978Z,18.67
2019-01-11T01:36:04.285Z,17.23
2019-01-11T01:42:08.559Z,19.97
2019-01-11T01:48:12.757Z,24.37
2019-01-11T01:54:17.226Z,24.93
2019-01-11T02:00:21.805Z,21.20
2019-01-11T02:06:26.395Z,21.03
2019-01-11T02:12:30.610Z,21.33
2019-01-11T02:18:34.858Z,21.50
2019-01-11T02:24:39.225Z,22.73
2019-01-11T02:30:43.757Z,25.20
2019-01-11T02:36:48.155Z,25.33
2019-01-11T02:42:52.387Z,25.73
2019-01-11T02:48:56.564Z,27.33
2019-01-11T02:55:00.839Z,27.90
2019-01-11T03:01:05.411Z,27.00
2019-01-11T03:07:09.641Z,26.47
2019-01-11T03:13:13.879Z,25.53
2019-01-11T03:19:18.212Z,26.43
2019-01-11T03:25:22.404Z,25.93
2019-01-11T03:31:35.427Z,26.37
2019-01-11T03:37:39.732Z,25.93
2019-01-11T03:43:43.938Z,26.07
2019-01-11T03:49:54.665Z,28.50
2019-01-11T03:55:54.303Z,25.63
2019-01-11T04:01:58.548Z,26.30
2019-01-11T04:08:02.987Z,25.97
2019-01-11T04:14:07.280Z,26.33
2019-01-11T04:20:14.813Z,26.30
2019-01-11T04:26:19.096Z,26.57
2019-01-11T04:32:23.329Z,26.33
2019-01-11T04:38:27.910Z,25.10
2019-01-11T04:44:32.160Z,26.27
2019-01-11T04:50:36.365Z,23.30
2019-01-11T04:56:40.670Z,23.33
2019-01-11T05:02:44.882Z,21.60
2019-01-11T05:08:49.092Z,21.47
2019-01-11T05:14:53.373Z,19.63
2019-01-11T05:20:57.652Z,18.87
2019-01-11T05:27:01.976Z,18.65
2019-01-11T05:33:06.294Z,18.13
2019-01-11T05:39:10.619Z,19.03
2019-01-11T05:45:15.329Z,17.93
2019-01-11T05:51:19.559Z,18.33
2019-01-11T05:57:23.865Z,16.07
2019-01-11T06:03:28.087Z,15.73
2019-01-11T06:09:32.319Z,15.00
2019-01-11T06:15:36.715Z,13.75
2019-01-11T06:21:40.947Z,13.55
2019-01-11T06:27:45.231Z,13.57
2019-01-11T06:33:49.443Z,9.53
2019-01-11T06:39:53.734Z,6.78
2019-01-11T06:45:58.069Z,6.28
2019-01-11T06:52:02.384Z,7.17
2019-01-11T06:58:06.780Z,6.72
2019-01-11T07:04:11.150Z,7.00
2019-01-11T07:10:17.636Z,7.25
2019-01-11T07:16:21.890Z,6.65
2019-01-11T07:22:26.247Z,14.93
2019-01-11T07:28:31.281Z,11.53
2019-01-11T07:34:35.576Z,5.92
2019-01-11T07:40:40.115Z,5.75
2019-01-11T07:46:44.724Z,6.17
2019-01-11T07:52:49.064Z,6.27
2019-01-11T07:58:53.382Z,8.28
2019-01-11T08:04:57.648Z,8.33
2019-01-11T08:11:03.139Z,9.77
2019-01-11T08:17:07.517Z,10.65
2019-01-11T08:23:11.940Z,11.08
2019-01-11T08:29:16.198Z,11.68
2019-01-11T08:35:20.517Z,11.25
2019-01-11T08:41:24.795Z,10.53
2019-01-11T08:47:29.163Z,10.25
2019-01-11T08:53:33.431Z,11.15
2019-01-11T08:59:37.750Z,10.40
2019-01-11T09:05:42.098Z,10.58
2019-01-11T09:11:46.580Z,10.60
2019-01-11T09:18:00.278Z,10.63
2019-01-11T09:24:04.583Z,9.55
2019-01-11T09:30:09.808Z,9.73
2019-01-11T09:36:14.211Z,9.65
2019-01-11T09:42:18.643Z,9.75
2019-01-11T09:48:22.953Z,9.80
2019-01-11T09:54:27.315Z,10.18
2019-01-11T10:00:31.617Z,9.40
2019-01-11T10:06:39.364Z,11.43
2019-01-11T10:12:43.623Z,11.10
2019-01-11T10:18:47.965Z,11.75
2019-01-11T10:24:52.457Z,10.75
2019-01-11T10:31:00.699Z,10.28
2019-01-11T10:37:03.225Z,9.60
2019-01-11T10:43:07.744Z,9.90
2019-01-11T10:49:12.104Z,8.13
2019-01-11T10:55:18.624Z,8.08
2019-01-11T11:01:22.973Z,8.20
2019-01-11T11:07:27.200Z,7.10
2019-01-11T11:13:31.678Z,7.20
2019-01-11T11:19:35.917Z,6.78
2019-01-11T11:25:40.267Z,6.85
2019-01-11T11:31:44.935Z,6.80
2019-01-11T11:37:49.162Z,6.33
2019-01-11T11:43:53.458Z,6.50
2019-01-11T11:49:57.802Z,5.65
2019-01-11T11:56:02.027Z,5.85
2019-01-11T12:02:06.384Z,5.50
2019-01-11T12:08:10.619Z,5.28
2019-01-11T12:14:14.930Z,5.40
2019-01-11T12:20:25.995Z,3.90
2019-01-11T12:26:30.198Z,3.17
2019-01-11T12:32:34.431Z,3.10
2019-01-11T12:38:38.908Z,2.58
2019-01-11T12:44:43.238Z,2.62
2019-01-11T12:50:47.602Z,2.50
2019-01-11T12:56:51.869Z,1.87
2019-01-11T13:02:56.602Z,2.50
2019-01-11T13:09:00.863Z,1.77
2019-01-11T13:15:06.712Z,1.77
2019-01-11T13:21:11.009Z,1.50
2019-01-11T13:27:15.465Z,2.47
2019-01-11T13:33:20.168Z,2.58
2019-01-11T13:39:24.431Z,2.80
2019-01-11T13:45:28.759Z,2.00
2019-01-11T13:51:33.161Z,1.75
2019-01-11T13:57:37.495Z,2.30
2019-01-11T14:03:42.046Z,2.00
2019-01-11T14:09:46.388Z,2.02
2019-01-11T14:15:50.725Z,2.95
2019-01-11T14:21:54.957Z,2.90
2019-01-11T14:27:59.219Z,2.22
2019-01-11T14:34:03.637Z,2.45
2019-01-11T14:40:10.807Z,2.05
2019-01-11T14:46:15.042Z,2.52
2019-01-11T14:52:20.541Z,2.30
2019-01-11T14:58:28.807Z,1.70
2019-01-11T15:04:31.968Z,2.12
2019-01-11T15:10:36.592Z,1.85
2019-01-11T15:16:41.109Z,1.10
2019-01-11T15:22:45.991Z,1.12
2019-01-11T15:28:50.298Z,1.35
2019-01-11T15:34:54.781Z,2.17
2019-01-11T15:40:59.253Z,2.35
2019-01-11T15:47:03.541Z,2.90
2019-01-11T15:53:07.808Z,3.67
2019-01-11T15:59:12.039Z,3.30
2019-01-11T16:05:16.357Z,2.92
2019-01-11T16:11:40.615Z,2.80
2019-01-11T16:17:45.096Z,4.05
2019-01-11T16:23:49.425Z,3.40
2019-01-11T16:29:53.773Z,3.15
2019-01-11T16:35:58.136Z,3.00
2019-01-11T16:42:02.512Z,3.25
2019-01-11T16:48:06.800Z,2.80
2019-01-11T16:54:11.092Z,2.92
2019-01-11T17:00:17.568Z,2.83
2019-01-11T17:06:21.878Z,2.50
2019-01-11T17:12:26.450Z,2.40
2019-01-11T17:18:30.775Z,2.55
2019-01-11T17:24:35.103Z,2.22
2019-01-11T17:30:39.367Z,2.67
2019-01-11T17:36:43.643Z,2.80
2019-01-11T17:42:47.847Z,2.80
2019-01-11T17:48:52.167Z,2.25
2019-01-11T17:55:00.806Z,2.02
2019-01-11T18:01:09.311Z,2.58
2019-01-11T18:07:18.550Z,2.20
2019-01-11T18:13:31.377Z,2.35
2019-01-11T18:19:37.167Z,2.30
2019-01-11T18:25:57.780Z,2.75
2019-01-11T18:32:04.786Z,2.70
2019-01-11T18:38:10.777Z,2.75
2019-01-11T18:44:16.883Z,2.50
2019-01-11T18:50:30.473Z,2.87
2019-01-11T18:56:40.404Z,2.85
2019-01-11T19:02:48.573Z,3.50
2019-01-11T19:08:57.806Z,3.40
2019-01-11T19:15:10.220Z,5.03
2019-01-11T19:21:26.508Z,4.47
2019-01-11T19:27:31.897Z,4.90
2019-01-11T19:33:37.094Z,4.55
2019-01-11T19:39:42.973Z,4.78
2019-01-11T19:45:48.531Z,5.10
2019-01-11T19:51:53.439Z,4.90
2019-01-11T19:58:05.895Z,4.05
2019-01-11T20:04:20.798Z,6.60
2019-01-11T20:10:33.853Z,5.95
2019-01-11T20:16:39.280Z,9.78
2019-01-11T20:22:44.618Z,6.90
2019-01-11T20:28:54.716Z,7.90
2019-01-11T20:35:08.959Z,8.18
2019-01-11T20:41:32.763Z,6.97
2019-01-11T20:47:51.531Z,8.38
2019-01-11T20:54:09.952Z,7.58
2019-01-11T21:00:29.255Z,6.97
2019-01-11T21:06:40.330Z,7.40
2019-01-11T21:13:04.255Z,5.30
2019-01-11T21:19:25.767Z,4.45
2019-01-11T21:25:36.369Z,4.22
2019-01-11T21:31:56.890Z,4.47
2019-01-11T21:38:06.157Z,4.92
2019-01-11T21:44:11.710Z,4.45
2019-01-11T21:50:24.857Z,6.60
2019-01-11T21:56:30.353Z,6.45
2019-01-11T22:02:36.455Z,6.08
2019-01-11T22:08:47.690Z,8.70
2019-01-11T22:14:53.994Z,8.78
2019-01-11T22:20:59.221Z,10.13
2019-01-11T22:27:06.154Z,10.85
2019-01-11T22:33:20.861Z,13.30
2019-01-11T22:39:31.859Z,14.40
2019-01-11T22:45:59.322Z,15.48
2019-01-11T22:52:19.003Z,16.10
2019-01-11T22:58:28.279Z,16.05
2019-01-11T23:05:25.236Z,15.45
2019-01-11T23:12:04.989Z,17.10
2019-01-11T23:18:23.090Z,15.88
2019-01-11T23:24:58.055Z,17.05
2019-01-11T23:31:22.164Z,16.93
2019-01-11T23:37:43.017Z,18.37
2019-01-11T23:43:58.414Z,17.82
2019-01-11T23:50:20.923Z,17.10
2019-01-11T23:56:43.746Z,17.00
